MDW weather

Chicago Midway International Airport
Chicago, Illinois, United States

Public forecast

Using degrees Fahrenheit for public forecast. Weather courtesy of forecast.io.

METAR (pilot weather report)

Retrieved 2018/04/22 08:53 UTC (1 hour ago):

KMDW 220853Z 09006KT 10SM BKN120 OVC200 07/M06 A3035 RMK AO2 SLP282 T00721061 55008

TAF (pilot weather forecast)

Retrieved 2018/04/22 06:24 UTC (4 hours ago):

TAF KMDW 220520Z 2206/2312 05005KT P6SM OVC150 FM221600 06012KT P6SM BKN250 FM230200 06007KT P6SM SCT250